Terminal Aerodrome Forecast
Issued by NWS

Home | Current Version | Previous Version | Text Only | Print | Product List | Glossary On
Versions: 1 2 3 4 5 6 7 8 9 10 11 12 13 14 15 16 17 18 19 20 21 22 23 24 25 26 27 28 29 30 31 32 33 34 35 36 37
000
FTPQ31 PGUM 020933 AAV
TAFTPN
TAF AMD
PTPN 020933Z 0210/0306 08011KT 6SM SHRA VCTS BKN015CB OVC110
      TEMPO 0210/0213 3SM +SHRA SCT007 OVC015
     FM021500 VRB07KT P6SM VCTS BKN015CB BKN110
     FM030100 24010KT P6SM VCSH BKN018 BKN120=

USA.gov is the U.S. government's official web portal to all federal, state and local government web resources and services.